Boles, Kentucky
Current Conditions -  °F | °C
As of 1:35 AM on Sunday 23 Nov 2014 (Local Time) from KGLW Reporting Station
Overcast Overcast  
Wind Chill: 53°   Ceiling: 12000
Heat Index: 53°   Visibility: 10mi
Dew Point: 35°   Wind: 6mph
Humidity: 51%   Direction: 190°S
Pressure: 30.04"   Gusts: NA
Location:  36.7279°N, 85.6843°W
Report Text: KGLW 230735Z AUTO 19005KT 10SM SCT035 OVC120 12/02 A3004 RMK AO2 T01160018
Loading
Personal Weather Stations






























Interactive Weather Map New forecast layout! Learn more

10-Day Weather Forecast

Advertisements
Track Severe Weather on mobile